sensor_id;sensor_type;location;lat;lon;timestamp;P1;durP1;ratioP1;P2;durP2;ratioP2
35496;SDS011;21609;49.298;6.844;2022-09-27T00:00:04;0.43;;;0.43;;
35496;SDS011;21609;49.298;6.844;2022-09-27T00:02:30;0.30;;;0.30;;
35496;SDS011;21609;49.298;6.844;2022-09-27T00:04:56;0.55;;;0.50;;
35496;SDS011;21609;49.298;6.844;2022-09-27T00:07:24;0.30;;;0.30;;
35496;SDS011;21609;49.298;6.844;2022-09-27T00:09:49;0.43;;;0.40;;
35496;SDS011;21609;49.298;6.844;2022-09-27T00:12:15;2.50;;;1.02;;
35496;SDS011;21609;49.298;6.844;2022-09-27T00:14:40;1.20;;;0.68;;
35496;SDS011;21609;49.298;6.844;2022-09-27T00:17:06;0.85;;;0.32;;
35496;SDS011;21609;49.298;6.844;2022-09-27T00:19:32;0.30;;;0.30;;
35496;SDS011;21609;49.298;6.844;2022-09-27T00:21:58;0.50;;;0.40;;
35496;SDS011;21609;49.298;6.844;2022-09-27T00:24:27;0.50;;;0.50;;
35496;SDS011;21609;49.298;6.844;2022-09-27T00:26:53;0.30;;;0.30;;
35496;SDS011;21609;49.298;6.844;2022-09-27T00:29:18;0.30;;;0.30;;
35496;SDS011;21609;49.298;6.844;2022-09-27T00:31:45;0.47;;;0.30;;
35496;SDS011;21609;49.298;6.844;2022-09-27T00:34:18;0.50;;;0.50;;
35496;SDS011;21609;49.298;6.844;2022-09-27T00:36:46;0.45;;;0.40;;
35496;SDS011;21609;49.298;6.844;2022-09-27T00:39:12;0.60;;;0.50;;
35496;SDS011;21609;49.298;6.844;2022-09-27T00:41:39;0.50;;;0.50;;
35496;SDS011;21609;49.298;6.844;2022-09-27T00:47:26;0.65;;;0.40;;
35496;SDS011;21609;49.298;6.844;2022-09-27T00:53:13;0.60;;;0.57;;
35496;SDS011;21609;49.298;6.844;2022-09-27T00:55:21;0.80;;;0.40;;
35496;SDS011;21609;49.298;6.844;2022-09-27T00:57:51;0.75;;;0.50;;
35496;SDS011;21609;49.298;6.844;2022-09-27T01:00:17;0.50;;;0.40;;
35496;SDS011;21609;49.298;6.844;2022-09-27T01:02:44;0.50;;;0.50;;
35496;SDS011;21609;49.298;6.844;2022-09-27T01:05:15;0.73;;;0.50;;
35496;SDS011;21609;49.298;6.844;2022-09-27T01:07:42;0.30;;;0.30;;
35496;SDS011;21609;49.298;6.844;2022-09-27T01:10:08;0.20;;;0.20;;
35496;SDS011;21609;49.298;6.844;2022-09-27T01:12:38;1.42;;;0.55;;
35496;SDS011;21609;49.298;6.844;2022-09-27T01:15:19;0.35;;;0.30;;
35496;SDS011;21609;49.298;6.844;2022-09-27T01:25:54;0.40;;;0.40;;
35496;SDS011;21609;49.298;6.844;2022-09-27T01:29:03;0.38;;;0.38;;
35496;SDS011;21609;49.298;6.844;2022-09-27T01:31:47;0.52;;;0.52;;
35496;SDS011;21609;49.298;6.844;2022-09-27T01:37:30;0.30;;;0.30;;
35496;SDS011;21609;49.298;6.844;2022-09-27T01:50:14;0.68;;;0.50;;
35496;SDS011;21609;49.298;6.844;2022-09-27T01:52:47;0.70;;;0.50;;
35496;SDS011;21609;49.298;6.844;2022-09-27T01:55:17;0.38;;;0.38;;
35496;SDS011;21609;49.298;6.844;2022-09-27T02:00:20;0.63;;;0.50;;
35496;SDS011;21609;49.298;6.844;2022-09-27T02:02:47;0.40;;;0.40;;
35496;SDS011;21609;49.298;6.844;2022-09-27T02:05:18;0.75;;;0.40;;
35496;SDS011;21609;49.298;6.844;2022-09-27T02:07:49;0.75;;;0.52;;
35496;SDS011;21609;49.298;6.844;2022-09-27T02:10:26;1.48;;;0.50;;
35496;SDS011;21609;49.298;6.844;2022-09-27T02:12:59;0.75;;;0.47;;
35496;SDS011;21609;49.298;6.844;2022-09-27T02:15:31;0.20;;;0.20;;
35496;SDS011;21609;49.298;6.844;2022-09-27T02:18:09;0.47;;;0.47;;
35496;SDS011;21609;49.298;6.844;2022-09-27T02:20:43;0.90;;;0.30;;
35496;SDS011;21609;49.298;6.844;2022-09-27T02:23:20;0.40;;;0.40;;
35496;SDS011;21609;49.298;6.844;2022-09-27T02:25:54;0.35;;;0.35;;
35496;SDS011;21609;49.298;6.844;2022-09-27T02:31:19;0.50;;;0.50;;
35496;SDS011;21609;49.298;6.844;2022-09-27T02:33:49;0.55;;;0.55;;
35496;SDS011;21609;49.298;6.844;2022-09-27T02:36:20;1.88;;;0.40;;
35496;SDS011;21609;49.298;6.844;2022-09-27T02:38:46;0.30;;;0.30;;
35496;SDS011;21609;49.298;6.844;2022-09-27T02:41:16;0.35;;;0.35;;
35496;SDS011;21609;49.298;6.844;2022-09-27T02:43:44;0.20;;;0.20;;
35496;SDS011;21609;49.298;6.844;2022-09-27T02:54:43;0.60;;;0.30;;
35496;SDS011;21609;49.298;6.844;2022-09-27T03:00:16;0.70;;;0.60;;
35496;SDS011;21609;49.298;6.844;2022-09-27T03:03:04;0.40;;;0.40;;
35496;SDS011;21609;49.298;6.844;2022-09-27T03:08:18;1.33;;;0.35;;
35496;SDS011;21609;49.298;6.844;2022-09-27T03:10:44;0.75;;;0.63;;
35496;SDS011;21609;49.298;6.844;2022-09-27T03:13:09;0.30;;;0.30;;
35496;SDS011;21609;49.298;6.844;2022-09-27T03:15:35;0.50;;;0.50;;
35496;SDS011;21609;49.298;6.844;2022-09-27T03:18:01;0.50;;;0.50;;
35496;SDS011;21609;49.298;6.844;2022-09-27T03:20:27;0.47;;;0.47;;
35496;SDS011;21609;49.298;6.844;2022-09-27T03:22:53;0.57;;;0.50;;
35496;SDS011;21609;49.298;6.844;2022-09-27T03:25:20;0.25;;;0.25;;
35496;SDS011;21609;49.298;6.844;2022-09-27T03:27:46;1.45;;;0.30;;
35496;SDS011;21609;49.298;6.844;2022-09-27T03:30:12;0.50;;;0.40;;
35496;SDS011;21609;49.298;6.844;2022-09-27T03:32:44;0.15;;;0.15;;
35496;SDS011;21609;49.298;6.844;2022-09-27T03:35:11;0.40;;;0.30;;
35496;SDS011;21609;49.298;6.844;2022-09-27T03:37:37;0.35;;;0.35;;
35496;SDS011;21609;49.298;6.844;2022-09-27T03:40:05;0.80;;;0.43;;
35496;SDS011;21609;49.298;6.844;2022-09-27T03:42:31;0.40;;;0.40;;
35496;SDS011;21609;49.298;6.844;2022-09-27T03:44:56;0.30;;;0.30;;
35496;SDS011;21609;49.298;6.844;2022-09-27T03:47:22;0.30;;;0.30;;
35496;SDS011;21609;49.298;6.844;2022-09-27T03:49:48;0.40;;;0.32;;
35496;SDS011;21609;49.298;6.844;2022-09-27T03:52:14;0.45;;;0.45;;
35496;SDS011;21609;49.298;6.844;2022-09-27T03:54:39;0.40;;;0.40;;
35496;SDS011;21609;49.298;6.844;2022-09-27T03:57:06;0.47;;;0.47;;
35496;SDS011;21609;49.298;6.844;2022-09-27T03:59:32;0.55;;;0.30;;
35496;SDS011;21609;49.298;6.844;2022-09-27T04:01:58;0.30;;;0.30;;
35496;SDS011;21609;49.298;6.844;2022-09-27T04:04:23;0.38;;;0.38;;
35496;SDS011;21609;49.298;6.844;2022-09-27T04:06:49;0.98;;;0.30;;
35496;SDS011;21609;49.298;6.844;2022-09-27T04:09:15;0.30;;;0.30;;
35496;SDS011;21609;49.298;6.844;2022-09-27T04:11:41;0.50;;;0.50;;
35496;SDS011;21609;49.298;6.844;2022-09-27T04:14:06;0.32;;;0.30;;
35496;SDS011;21609;49.298;6.844;2022-09-27T04:16:33;0.40;;;0.40;;
35496;SDS011;21609;49.298;6.844;2022-09-27T04:18:58;0.40;;;0.40;;
35496;SDS011;21609;49.298;6.844;2022-09-27T04:21:25;0.50;;;0.45;;
35496;SDS011;21609;49.298;6.844;2022-09-27T04:23:51;0.88;;;0.38;;
35496;SDS011;21609;49.298;6.844;2022-09-27T04:26:17;0.63;;;0.45;;
35496;SDS011;21609;49.298;6.844;2022-09-27T04:28:42;0.40;;;0.40;;
35496;SDS011;21609;49.298;6.844;2022-09-27T04:31:08;1.00;;;0.30;;
35496;SDS011;21609;49.298;6.844;2022-09-27T04:33:33;1.38;;;0.50;;
35496;SDS011;21609;49.298;6.844;2022-09-27T04:35:59;0.40;;;0.35;;
35496;SDS011;21609;49.298;6.844;2022-09-27T04:38:43;0.40;;;0.20;;
35496;SDS011;21609;49.298;6.844;2022-09-27T04:41:08;0.28;;;0.20;;
35496;SDS011;21609;49.298;6.844;2022-09-27T04:43:34;0.40;;;0.40;;
35496;SDS011;21609;49.298;6.844;2022-09-27T04:46:00;0.30;;;0.30;;
35496;SDS011;21609;49.298;6.844;2022-09-27T04:48:25;0.57;;;0.30;;
35496;SDS011;21609;49.298;6.844;2022-09-27T04:50:55;0.40;;;0.40;;
35496;SDS011;21609;49.298;6.844;2022-09-27T04:53:21;0.52;;;0.43;;
35496;SDS011;21609;49.298;6.844;2022-09-27T04:55:48;0.75;;;0.38;;
35496;SDS011;21609;49.298;6.844;2022-09-27T04:58:14;0.50;;;0.50;;
35496;SDS011;21609;49.298;6.844;2022-09-27T05:00:39;0.50;;;0.50;;
35496;SDS011;21609;49.298;6.844;2022-09-27T05:03:07;0.73;;;0.30;;
35496;SDS011;21609;49.298;6.844;2022-09-27T05:05:32;0.30;;;0.30;;
35496;SDS011;21609;49.298;6.844;2022-09-27T05:07:58;0.50;;;0.40;;
35496;SDS011;21609;49.298;6.844;2022-09-27T05:10:24;0.65;;;0.40;;
35496;SDS011;21609;49.298;6.844;2022-09-27T05:12:49;0.40;;;0.40;;
35496;SDS011;21609;49.298;6.844;2022-09-27T05:15:15;1.20;;;0.30;;
35496;SDS011;21609;49.298;6.844;2022-09-27T05:17:40;2.25;;;0.60;;
35496;SDS011;21609;49.298;6.844;2022-09-27T05:20:06;0.82;;;0.35;;
35496;SDS011;21609;49.298;6.844;2022-09-27T05:22:33;0.43;;;0.40;;
35496;SDS011;21609;49.298;6.844;2022-09-27T05:24:59;0.50;;;0.40;;
35496;SDS011;21609;49.298;6.844;2022-09-27T05:27:24;0.30;;;0.22;;
35496;SDS011;21609;49.298;6.844;2022-09-27T05:29:50;2.03;;;0.40;;
35496;SDS011;21609;49.298;6.844;2022-09-27T05:32:16;0.43;;;0.22;;
35496;SDS011;21609;49.298;6.844;2022-09-27T05:34:41;0.68;;;0.40;;
35496;SDS011;21609;49.298;6.844;2022-09-27T05:37:07;1.27;;;0.22;;
35496;SDS011;21609;49.298;6.844;2022-09-27T05:39:33;1.05;;;0.20;;
35496;SDS011;21609;49.298;6.844;2022-09-27T05:41:58;0.45;;;0.38;;
35496;SDS011;21609;49.298;6.844;2022-09-27T05:44:24;0.10;;;0.10;;
35496;SDS011;21609;49.298;6.844;2022-09-27T05:46:52;0.93;;;0.35;;
35496;SDS011;21609;49.298;6.844;2022-09-27T05:49:18;0.75;;;0.40;;
35496;SDS011;21609;49.298;6.844;2022-09-27T05:51:44;1.60;;;0.50;;
35496;SDS011;21609;49.298;6.844;2022-09-27T05:54:09;1.65;;;0.30;;
35496;SDS011;21609;49.298;6.844;2022-09-27T05:56:35;0.40;;;0.38;;
35496;SDS011;21609;49.298;6.844;2022-09-27T05:59:01;0.45;;;0.30;;
35496;SDS011;21609;49.298;6.844;2022-09-27T06:01:26;0.45;;;0.38;;
35496;SDS011;21609;49.298;6.844;2022-09-27T06:03:52;2.03;;;0.30;;
35496;SDS011;21609;49.298;6.844;2022-09-27T06:06:19;0.75;;;0.50;;
35496;SDS011;21609;49.298;6.844;2022-09-27T06:08:45;1.00;;;0.63;;
35496;SDS011;21609;49.298;6.844;2022-09-27T06:11:11;1.17;;;0.50;;
35496;SDS011;21609;49.298;6.844;2022-09-27T06:13:38;5.13;;;0.40;;
35496;SDS011;21609;49.298;6.844;2022-09-27T06:16:04;0.77;;;0.40;;
35496;SDS011;21609;49.298;6.844;2022-09-27T06:18:31;0.95;;;0.47;;
35496;SDS011;21609;49.298;6.844;2022-09-27T06:21:00;0.70;;;0.30;;
35496;SDS011;21609;49.298;6.844;2022-09-27T06:23:26;2.10;;;0.50;;
35496;SDS011;21609;49.298;6.844;2022-09-27T06:25:53;0.40;;;0.30;;
35496;SDS011;21609;49.298;6.844;2022-09-27T06:28:19;0.63;;;0.22;;
35496;SDS011;21609;49.298;6.844;2022-09-27T06:30:46;0.60;;;0.32;;
35496;SDS011;21609;49.298;6.844;2022-09-27T06:33:16;1.42;;;0.30;;
35496;SDS011;21609;49.298;6.844;2022-09-27T06:35:44;0.70;;;0.43;;
35496;SDS011;21609;49.298;6.844;2022-09-27T06:38:11;0.28;;;0.28;;
35496;SDS011;21609;49.298;6.844;2022-09-27T06:40:38;1.30;;;0.50;;
35496;SDS011;21609;49.298;6.844;2022-09-27T06:43:07;0.95;;;0.35;;
35496;SDS011;21609;49.298;6.844;2022-09-27T06:45:34;0.40;;;0.30;;
35496;SDS011;21609;49.298;6.844;2022-09-27T06:48:03;1.20;;;0.50;;
35496;SDS011;21609;49.298;6.844;2022-09-27T06:50:33;0.95;;;0.40;;
35496;SDS011;21609;49.298;6.844;2022-09-27T06:55:26;2.95;;;0.30;;
35496;SDS011;21609;49.298;6.844;2022-09-27T06:57:55;0.70;;;0.40;;
35496;SDS011;21609;49.298;6.844;2022-09-27T07:00:42;1.00;;;0.57;;
35496;SDS011;21609;49.298;6.844;2022-09-27T07:03:11;0.40;;;0.40;;
35496;SDS011;21609;49.298;6.844;2022-09-27T07:05:38;0.55;;;0.40;;
35496;SDS011;21609;49.298;6.844;2022-09-27T07:08:06;0.35;;;0.35;;
35496;SDS011;21609;49.298;6.844;2022-09-27T07:10:34;1.20;;;0.38;;
35496;SDS011;21609;49.298;6.844;2022-09-27T07:13:08;0.38;;;0.28;;
35496;SDS011;21609;49.298;6.844;2022-09-27T07:15:35;0.50;;;0.30;;
35496;SDS011;21609;49.298;6.844;2022-09-27T07:18:02;0.43;;;0.40;;
35496;SDS011;21609;49.298;6.844;2022-09-27T07:20:29;1.40;;;0.30;;
35496;SDS011;21609;49.298;6.844;2022-09-27T07:22:56;1.10;;;0.45;;
35496;SDS011;21609;49.298;6.844;2022-09-27T07:25:22;0.85;;;0.30;;
35496;SDS011;21609;49.298;6.844;2022-09-27T07:27:49;0.93;;;0.38;;
35496;SDS011;21609;49.298;6.844;2022-09-27T07:30:16;0.88;;;0.30;;
35496;SDS011;21609;49.298;6.844;2022-09-27T07:32:43;1.50;;;0.52;;
35496;SDS011;21609;49.298;6.844;2022-09-27T07:35:09;1.23;;;0.43;;
35496;SDS011;21609;49.298;6.844;2022-09-27T07:37:36;0.65;;;0.20;;
35496;SDS011;21609;49.298;6.844;2022-09-27T07:40:02;0.60;;;0.43;;
35496;SDS011;21609;49.298;6.844;2022-09-27T07:42:33;0.40;;;0.30;;
35496;SDS011;21609;49.298;6.844;2022-09-27T07:45:03;1.00;;;0.50;;
35496;SDS011;21609;49.298;6.844;2022-09-27T07:47:30;1.80;;;0.80;;
35496;SDS011;21609;49.298;6.844;2022-09-27T07:49:55;3.00;;;0.85;;
35496;SDS011;21609;49.298;6.844;2022-09-27T07:52:21;4.40;;;1.27;;
35496;SDS011;21609;49.298;6.844;2022-09-27T07:54:47;1.27;;;0.90;;
35496;SDS011;21609;49.298;6.844;2022-09-27T07:57:13;4.38;;;1.15;;
35496;SDS011;21609;49.298;6.844;2022-09-27T07:59:39;2.13;;;0.73;;
35496;SDS011;21609;49.298;6.844;2022-09-27T08:02:05;5.10;;;0.90;;
35496;SDS011;21609;49.298;6.844;2022-09-27T08:04:37;5.25;;;1.38;;
35496;SDS011;21609;49.298;6.844;2022-09-27T08:07:02;3.10;;;1.20;;
35496;SDS011;21609;49.298;6.844;2022-09-27T08:09:28;1.65;;;0.88;;
35496;SDS011;21609;49.298;6.844;2022-09-27T08:11:55;2.78;;;1.33;;
35496;SDS011;21609;49.298;6.844;2022-09-27T08:14:22;4.10;;;0.88;;
35496;SDS011;21609;49.298;6.844;2022-09-27T08:16:48;1.80;;;1.10;;
35496;SDS011;21609;49.298;6.844;2022-09-27T08:19:17;3.78;;;1.27;;
35496;SDS011;21609;49.298;6.844;2022-09-27T08:21:43;3.83;;;0.95;;
35496;SDS011;21609;49.298;6.844;2022-09-27T08:24:09;6.22;;;1.63;;
35496;SDS011;21609;49.298;6.844;2022-09-27T08:26:35;2.30;;;1.40;;
35496;SDS011;21609;49.298;6.844;2022-09-27T08:29:00;3.67;;;1.10;;
35496;SDS011;21609;49.298;6.844;2022-09-27T08:31:26;2.50;;;0.70;;
35496;SDS011;21609;49.298;6.844;2022-09-27T08:33:51;2.25;;;0.85;;
35496;SDS011;21609;49.298;6.844;2022-09-27T08:36:17;7.88;;;1.30;;
35496;SDS011;21609;49.298;6.844;2022-09-27T08:38:47;1.45;;;0.98;;
35496;SDS011;21609;49.298;6.844;2022-09-27T08:44:20;1.80;;;0.95;;
35496;SDS011;21609;49.298;6.844;2022-09-27T08:50:01;2.38;;;1.00;;
35496;SDS011;21609;49.298;6.844;2022-09-27T08:52:41;3.42;;;1.58;;
35496;SDS011;21609;49.298;6.844;2022-09-27T08:55:35;9.88;;;1.60;;
35496;SDS011;21609;49.298;6.844;2022-09-27T08:58:01;1.25;;;0.80;;
35496;SDS011;21609;49.298;6.844;2022-09-27T09:00:36;3.88;;;1.63;;
35496;SDS011;21609;49.298;6.844;2022-09-27T09:03:02;2.33;;;1.17;;
35496;SDS011;21609;49.298;6.844;2022-09-27T09:05:32;2.88;;;1.20;;
35496;SDS011;21609;49.298;6.844;2022-09-27T09:08:06;3.00;;;0.98;;
35496;SDS011;21609;49.298;6.844;2022-09-27T09:16:50;2.33;;;0.82;;
35496;SDS011;21609;49.298;6.844;2022-09-27T09:22:36;1.88;;;0.82;;
35496;SDS011;21609;49.298;6.844;2022-09-27T09:25:35;1.42;;;0.80;;
35496;SDS011;21609;49.298;6.844;2022-09-27T09:28:16;3.42;;;1.05;;
35496;SDS011;21609;49.298;6.844;2022-09-27T09:35:49;2.13;;;1.08;;
35496;SDS011;21609;49.298;6.844;2022-09-27T09:43:59;1.95;;;0.98;;
35496;SDS011;21609;49.298;6.844;2022-09-27T09:46:34;2.33;;;1.20;;
35496;SDS011;21609;49.298;6.844;2022-09-27T09:51:55;1.90;;;1.20;;
35496;SDS011;21609;49.298;6.844;2022-09-27T09:54:29;3.65;;;1.00;;
35496;SDS011;21609;49.298;6.844;2022-09-27T09:57:13;2.35;;;0.90;;
35496;SDS011;21609;49.298;6.844;2022-09-27T09:59:49;1.52;;;0.65;;
35496;SDS011;21609;49.298;6.844;2022-09-27T10:02:32;2.88;;;1.27;;
35496;SDS011;21609;49.298;6.844;2022-09-27T10:05:03;1.45;;;0.77;;
35496;SDS011;21609;49.298;6.844;2022-09-27T10:07:30;3.17;;;1.48;;
35496;SDS011;21609;49.298;6.844;2022-09-27T10:10:01;2.78;;;1.40;;
35496;SDS011;21609;49.298;6.844;2022-09-27T10:12:29;2.15;;;1.00;;
35496;SDS011;21609;49.298;6.844;2022-09-27T10:14:56;1.40;;;0.95;;
35496;SDS011;21609;49.298;6.844;2022-09-27T10:19:57;1.52;;;1.35;;
35496;SDS011;21609;49.298;6.844;2022-09-27T10:22:31;2.45;;;1.33;;
35496;SDS011;21609;49.298;6.844;2022-09-27T10:25:10;1.42;;;0.95;;
35496;SDS011;21609;49.298;6.844;2022-09-27T10:27:40;2.22;;;0.90;;
35496;SDS011;21609;49.298;6.844;2022-09-27T10:30:28;1.73;;;1.30;;
35496;SDS011;21609;49.298;6.844;2022-09-27T10:33:13;7.13;;;1.77;;
35496;SDS011;21609;49.298;6.844;2022-09-27T10:35:43;3.47;;;1.50;;
35496;SDS011;21609;49.298;6.844;2022-09-27T10:40:41;3.00;;;1.42;;
35496;SDS011;21609;49.298;6.844;2022-09-27T10:48:27;4.65;;;1.98;;
35496;SDS011;21609;49.298;6.844;2022-09-27T10:51:20;4.32;;;1.42;;
35496;SDS011;21609;49.298;6.844;2022-09-27T10:53:49;6.38;;;1.77;;
35496;SDS011;21609;49.298;6.844;2022-09-27T10:56:19;2.17;;;1.30;;
35496;SDS011;21609;49.298;6.844;2022-09-27T10:58:48;2.83;;;1.45;;
35496;SDS011;21609;49.298;6.844;2022-09-27T11:01:14;6.28;;;1.50;;
35496;SDS011;21609;49.298;6.844;2022-09-27T11:03:47;5.35;;;1.48;;
35496;SDS011;21609;49.298;6.844;2022-09-27T11:06:19;3.05;;;1.38;;
35496;SDS011;21609;49.298;6.844;2022-09-27T11:08:57;7.63;;;1.48;;
35496;SDS011;21609;49.298;6.844;2022-09-27T11:11:39;1.92;;;1.20;;
35496;SDS011;21609;49.298;6.844;2022-09-27T11:14:08;4.03;;;1.10;;
35496;SDS011;21609;49.298;6.844;2022-09-27T11:16:58;1.85;;;0.82;;
35496;SDS011;21609;49.298;6.844;2022-09-27T11:25:33;3.72;;;1.23;;
35496;SDS011;21609;49.298;6.844;2022-09-27T11:30:58;1.05;;;0.73;;
35496;SDS011;21609;49.298;6.844;2022-09-27T11:34:22;2.80;;;1.05;;
35496;SDS011;21609;49.298;6.844;2022-09-27T11:36:42;2.00;;;1.17;;
35496;SDS011;21609;49.298;6.844;2022-09-27T11:42:55;2.17;;;1.10;;
35496;SDS011;21609;49.298;6.844;2022-09-27T11:45:51;5.10;;;1.50;;
35496;SDS011;21609;49.298;6.844;2022-09-27T11:54:27;3.47;;;1.45;;
35496;SDS011;21609;49.298;6.844;2022-09-27T11:57:01;2.25;;;1.20;;
35496;SDS011;21609;49.298;6.844;2022-09-27T12:16:38;5.72;;;1.98;;
35496;SDS011;21609;49.298;6.844;2022-09-27T12:19:08;2.35;;;1.20;;
35496;SDS011;21609;49.298;6.844;2022-09-27T12:21:42;3.70;;;1.50;;
35496;SDS011;21609;49.298;6.844;2022-09-27T12:24:13;3.60;;;1.05;;
35496;SDS011;21609;49.298;6.844;2022-09-27T12:26:44;3.13;;;1.08;;
35496;SDS011;21609;49.298;6.844;2022-09-27T12:29:21;2.40;;;1.25;;
35496;SDS011;21609;49.298;6.844;2022-09-27T12:37:33;5.65;;;1.02;;
35496;SDS011;21609;49.298;6.844;2022-09-27T12:40:17;3.03;;;1.13;;
35496;SDS011;21609;49.298;6.844;2022-09-27T12:45:15;2.65;;;1.33;;
35496;SDS011;21609;49.298;6.844;2022-09-27T12:50:38;1.42;;;0.60;;
35496;SDS011;21609;49.298;6.844;2022-09-27T13:02:20;1.55;;;0.70;;
35496;SDS011;21609;49.298;6.844;2022-09-27T13:10:33;3.25;;;1.50;;
35496;SDS011;21609;49.298;6.844;2022-09-27T13:13:02;1.85;;;1.30;;
35496;SDS011;21609;49.298;6.844;2022-09-27T13:15:33;3.78;;;1.38;;
35496;SDS011;21609;49.298;6.844;2022-09-27T13:18:03;3.53;;;1.35;;
35496;SDS011;21609;49.298;6.844;2022-09-27T13:20:50;4.78;;;1.05;;
35496;SDS011;21609;49.298;6.844;2022-09-27T13:25:46;1.80;;;1.00;;
35496;SDS011;21609;49.298;6.844;2022-09-27T13:30:57;1.30;;;1.10;;
35496;SDS011;21609;49.298;6.844;2022-09-27T13:46:44;4.40;;;1.63;;
35496;SDS011;21609;49.298;6.844;2022-09-27T13:49:27;6.40;;;1.65;;
35496;SDS011;21609;49.298;6.844;2022-09-27T13:52:20;6.03;;;1.15;;
35496;SDS011;21609;49.298;6.844;2022-09-27T13:54:58;5.57;;;1.40;;
35496;SDS011;21609;49.298;6.844;2022-09-27T14:00:20;4.72;;;1.20;;
35496;SDS011;21609;49.298;6.844;2022-09-27T14:05:27;5.05;;;1.20;;
35496;SDS011;21609;49.298;6.844;2022-09-27T14:08:05;3.70;;;0.90;;
35496;SDS011;21609;49.298;6.844;2022-09-27T14:10:45;3.72;;;1.25;;
35496;SDS011;21609;49.298;6.844;2022-09-27T14:13:11;1.73;;;0.77;;
35496;SDS011;21609;49.298;6.844;2022-09-27T14:15:44;1.73;;;0.63;;
35496;SDS011;21609;49.298;6.844;2022-09-27T14:18:10;2.95;;;1.13;;
35496;SDS011;21609;49.298;6.844;2022-09-27T14:20:42;2.60;;;0.70;;
35496;SDS011;21609;49.298;6.844;2022-09-27T14:23:20;2.97;;;1.02;;
35496;SDS011;21609;49.298;6.844;2022-09-27T14:25:47;3.50;;;1.38;;
35496;SDS011;21609;49.298;6.844;2022-09-27T14:28:18;2.97;;;0.77;;
35496;SDS011;21609;49.298;6.844;2022-09-27T14:30:44;3.87;;;0.80;;
35496;SDS011;21609;49.298;6.844;2022-09-27T14:33:32;2.58;;;0.80;;
35496;SDS011;21609;49.298;6.844;2022-09-27T14:35:58;10.63;;;1.05;;
35496;SDS011;21609;49.298;6.844;2022-09-27T14:38:43;2.00;;;0.88;;
35496;SDS011;21609;49.298;6.844;2022-09-27T14:41:12;1.75;;;0.98;;
35496;SDS011;21609;49.298;6.844;2022-09-27T14:43:43;1.50;;;0.85;;
35496;SDS011;21609;49.298;6.844;2022-09-27T14:46:28;2.05;;;0.90;;
35496;SDS011;21609;49.298;6.844;2022-09-27T14:48:56;5.18;;;0.90;;
35496;SDS011;21609;49.298;6.844;2022-09-27T14:51:27;2.00;;;0.88;;
35496;SDS011;21609;49.298;6.844;2022-09-27T14:53:56;2.10;;;0.90;;
35496;SDS011;21609;49.298;6.844;2022-09-27T14:58:54;1.17;;;0.80;;
35496;SDS011;21609;49.298;6.844;2022-09-27T15:01:26;1.45;;;0.98;;
35496;SDS011;21609;49.298;6.844;2022-09-27T15:03:53;1.90;;;0.90;;
35496;SDS011;21609;49.298;6.844;2022-09-27T15:06:20;3.17;;;1.40;;
35496;SDS011;21609;49.298;6.844;2022-09-27T15:08:47;1.80;;;0.90;;
35496;SDS011;21609;49.298;6.844;2022-09-27T15:11:14;2.42;;;1.00;;
35496;SDS011;21609;49.298;6.844;2022-09-27T15:13:44;3.28;;;1.63;;
35496;SDS011;21609;49.298;6.844;2022-09-27T15:16:15;2.20;;;1.60;;
35496;SDS011;21609;49.298;6.844;2022-09-27T15:18:44;3.15;;;1.73;;
35496;SDS011;21609;49.298;6.844;2022-09-27T15:23:54;3.42;;;1.40;;
35496;SDS011;21609;49.298;6.844;2022-09-27T15:26:24;4.65;;;1.48;;
35496;SDS011;21609;49.298;6.844;2022-09-27T15:29:00;2.10;;;1.05;;
35496;SDS011;21609;49.298;6.844;2022-09-27T15:31:29;4.43;;;1.50;;
35496;SDS011;21609;49.298;6.844;2022-09-27T15:37:09;1.52;;;0.90;;
35496;SDS011;21609;49.298;6.844;2022-09-27T15:39:14;2.13;;;1.10;;
35496;SDS011;21609;49.298;6.844;2022-09-27T15:49:58;1.58;;;1.30;;
35496;SDS011;21609;49.298;6.844;2022-09-27T15:52:57;2.85;;;1.08;;
35496;SDS011;21609;49.298;6.844;2022-09-27T15:55:24;3.10;;;1.08;;
35496;SDS011;21609;49.298;6.844;2022-09-27T15:57:55;1.20;;;1.00;;
35496;SDS011;21609;49.298;6.844;2022-09-27T16:00:23;2.28;;;1.23;;
35496;SDS011;21609;49.298;6.844;2022-09-27T16:02:50;8.05;;;1.58;;
35496;SDS011;21609;49.298;6.844;2022-09-27T16:05:16;1.77;;;1.10;;
35496;SDS011;21609;49.298;6.844;2022-09-27T16:07:42;2.60;;;1.25;;
35496;SDS011;21609;49.298;6.844;2022-09-27T16:10:11;9.70;;;1.23;;
35496;SDS011;21609;49.298;6.844;2022-09-27T16:12:41;3.70;;;1.20;;
35496;SDS011;21609;49.298;6.844;2022-09-27T16:15:09;1.55;;;0.88;;
35496;SDS011;21609;49.298;6.844;2022-09-27T16:17:38;5.82;;;1.25;;
35496;SDS011;21609;49.298;6.844;2022-09-27T16:20:06;1.95;;;0.90;;
35496;SDS011;21609;49.298;6.844;2022-09-27T16:22:54;4.50;;;1.05;;
35496;SDS011;21609;49.298;6.844;2022-09-27T16:25:20;2.67;;;1.33;;
35496;SDS011;21609;49.298;6.844;2022-09-27T16:27:47;2.05;;;0.63;;
35496;SDS011;21609;49.298;6.844;2022-09-27T16:30:13;2.83;;;1.05;;
35496;SDS011;21609;49.298;6.844;2022-09-27T16:32:42;3.13;;;0.95;;
35496;SDS011;21609;49.298;6.844;2022-09-27T16:35:09;1.38;;;0.75;;
35496;SDS011;21609;49.298;6.844;2022-09-27T16:37:36;6.10;;;1.23;;
35496;SDS011;21609;49.298;6.844;2022-09-27T16:40:05;2.88;;;0.82;;
35496;SDS011;21609;49.298;6.844;2022-09-27T16:42:32;2.05;;;0.88;;
35496;SDS011;21609;49.298;6.844;2022-09-27T16:44:58;1.25;;;0.70;;
35496;SDS011;21609;49.298;6.844;2022-09-27T16:47:25;1.13;;;0.70;;
35496;SDS011;21609;49.298;6.844;2022-09-27T16:49:51;2.60;;;1.02;;
35496;SDS011;21609;49.298;6.844;2022-09-27T16:52:36;1.80;;;0.73;;
35496;SDS011;21609;49.298;6.844;2022-09-27T16:55:01;2.08;;;0.90;;
35496;SDS011;21609;49.298;6.844;2022-09-27T16:57:27;1.83;;;0.73;;
35496;SDS011;21609;49.298;6.844;2022-09-27T16:59:53;1.13;;;0.80;;
35496;SDS011;21609;49.298;6.844;2022-09-27T17:02:22;1.23;;;0.55;;
35496;SDS011;21609;49.298;6.844;2022-09-27T17:04:50;7.22;;;1.20;;
35496;SDS011;21609;49.298;6.844;2022-09-27T17:07:17;2.15;;;0.80;;
35496;SDS011;21609;49.298;6.844;2022-09-27T17:09:43;1.30;;;0.80;;
35496;SDS011;21609;49.298;6.844;2022-09-27T17:12:09;1.13;;;0.82;;
35496;SDS011;21609;49.298;6.844;2022-09-27T17:14:34;2.10;;;0.52;;
35496;SDS011;21609;49.298;6.844;2022-09-27T17:17:01;1.02;;;0.70;;
35496;SDS011;21609;49.298;6.844;2022-09-27T17:19:26;1.42;;;0.50;;
35496;SDS011;21609;49.298;6.844;2022-09-27T17:21:52;0.77;;;0.50;;
35496;SDS011;21609;49.298;6.844;2022-09-27T17:24:19;2.65;;;0.77;;
35496;SDS011;21609;49.298;6.844;2022-09-27T17:26:46;2.83;;;1.17;;
35496;SDS011;21609;49.298;6.844;2022-09-27T17:29:12;4.50;;;0.73;;
35496;SDS011;21609;49.298;6.844;2022-09-27T17:31:38;0.75;;;0.52;;
35496;SDS011;21609;49.298;6.844;2022-09-27T17:34:05;5.50;;;0.90;;
35496;SDS011;21609;49.298;6.844;2022-09-27T17:36:31;4.05;;;0.90;;
35496;SDS011;21609;49.298;6.844;2022-09-27T17:38:59;1.50;;;1.08;;
35496;SDS011;21609;49.298;6.844;2022-09-27T17:41:25;1.50;;;0.88;;
35496;SDS011;21609;49.298;6.844;2022-09-27T17:43:53;1.42;;;0.90;;
35496;SDS011;21609;49.298;6.844;2022-09-27T17:48:49;1.58;;;0.52;;
35496;SDS011;21609;49.298;6.844;2022-09-27T17:51:34;0.82;;;0.65;;
35496;SDS011;21609;49.298;6.844;2022-09-27T17:54:01;2.03;;;0.80;;
35496;SDS011;21609;49.298;6.844;2022-09-27T17:56:28;0.55;;;0.55;;
35496;SDS011;21609;49.298;6.844;2022-09-27T17:58:57;0.85;;;0.75;;
35496;SDS011;21609;49.298;6.844;2022-09-27T18:01:23;1.80;;;0.90;;
35496;SDS011;21609;49.298;6.844;2022-09-27T18:03:52;2.08;;;0.88;;
35496;SDS011;21609;49.298;6.844;2022-09-27T18:06:19;2.42;;;0.82;;
35496;SDS011;21609;49.298;6.844;2022-09-27T18:08:45;3.92;;;0.77;;
35496;SDS011;21609;49.298;6.844;2022-09-27T18:11:11;1.92;;;0.90;;
35496;SDS011;21609;49.298;6.844;2022-09-27T18:13:39;1.30;;;0.70;;
35496;SDS011;21609;49.298;6.844;2022-09-27T18:16:09;2.97;;;1.10;;